createdAt,value
2022-08-03T00:18:58.148Z,28.22
2022-08-03T00:21:26.373Z,28.22
2022-08-03T00:24:31.700Z,28.25
2022-08-03T00:26:59.949Z,28.17
2022-08-03T00:29:28.170Z,28.17
2022-08-03T00:32:33.504Z,28.18
2022-08-03T00:35:37.231Z,28.05
2022-08-03T00:37:58.855Z,28.03
2022-08-03T00:40:27.097Z,27.87
2022-08-03T00:43:32.454Z,28.05
2022-08-03T00:46:00.638Z,28.02
2022-08-03T00:48:29.857Z,27.94
2022-08-03T00:51:34.256Z,27.94
2022-08-03T00:54:02.453Z,27.93
2022-08-03T00:56:30.701Z,27.81
2022-08-03T00:58:58.960Z,27.77
2022-08-03T01:01:27.316Z,27.6
2022-08-03T01:04:32.520Z,27.71
2022-08-03T01:07:00.755Z,27.69
2022-08-03T01:09:29.011Z,27.76
2022-08-03T01:12:34.316Z,27.67
2022-08-03T01:15:02.582Z,27.63
2022-08-03T01:17:30.816Z,27.48
2022-08-03T01:19:59.085Z,28.56
2022-08-03T01:22:27.315Z,27.59
2022-08-03T01:26:09.711Z,27.51
2022-08-03T01:29:15.023Z,27.57
2022-08-03T01:33:34.701Z,27.45
2022-08-03T01:36:02.738Z,27.39
2022-08-03T01:38:30.949Z,27.4
2022-08-03T01:40:59.199Z,27.38
2022-08-03T01:43:54.959Z,27.36
2022-08-03T01:46:24.537Z,27.32
2022-08-03T01:49:29.883Z,27.33
2022-08-03T01:52:03.732Z,27.31
2022-08-03T01:55:03.443Z,27.27
2022-08-03T01:57:31.731Z,27.24
2022-08-03T01:59:59.936Z,27.24
2022-08-03T02:02:32.487Z,27.08
2022-08-03T02:05:33.518Z,27.06
2022-08-03T02:08:01.754Z,27.05
2022-08-03T02:10:34.996Z,27.04
2022-08-03T02:12:58.213Z,26.97
2022-08-03T02:15:26.449Z,27.02
2022-08-03T02:18:31.848Z,26.95
2022-08-03T02:21:00.030Z,26.96
2022-08-03T02:23:28.339Z,26.92
2022-08-03T02:26:33.610Z,26.92
2022-08-03T02:29:01.872Z,26.91
2022-08-03T02:31:30.080Z,26.72
2022-08-03T02:33:58.385Z,26.75
2022-08-03T02:36:26.562Z,26.69
2022-08-03T02:39:31.917Z,26.82
2022-08-03T02:42:00.140Z,26.9
2022-08-03T02:44:28.394Z,26.83
2022-08-03T02:47:53.752Z,26.88
2022-08-03T02:49:53.776Z,26.88
2022-08-03T02:52:22.039Z,26.82
2022-08-03T02:56:04.401Z,26.82
2022-08-03T02:58:32.640Z,26.68
2022-08-03T03:01:00.926Z,26.65
2022-08-03T03:03:30.638Z,26.73
2022-08-03T03:06:34.431Z,26.81
2022-08-03T03:09:02.673Z,26.82
2022-08-03T03:11:30.929Z,26.79
2022-08-03T03:13:59.171Z,26.82
2022-08-03T03:16:27.429Z,26.81
2022-08-03T03:20:09.808Z,26.65
2022-08-03T03:23:15.118Z,26.53
2022-08-03T03:26:20.418Z,26.68
2022-08-03T03:29:25.736Z,26.64
2022-08-03T03:32:31.033Z,26.65
2022-08-03T03:34:59.278Z,26.6
2022-08-03T03:37:27.529Z,26.34
2022-08-03T03:40:32.867Z,26.35
2022-08-03T03:43:01.097Z,26.42
2022-08-03T03:45:29.329Z,26.35
2022-08-03T03:48:26.496Z,26.34
2022-08-03T03:51:31.791Z,26.37
2022-08-03T03:53:59.999Z,26.35
2022-08-03T03:56:28.307Z,26.37
2022-08-03T03:59:35.271Z,26.44
2022-08-03T04:02:01.962Z,26.48
2022-08-03T04:04:30.053Z,26.3
2022-08-03T04:06:58.328Z,26.34
2022-08-03T04:09:26.546Z,26.31
2022-08-03T04:12:31.907Z,26.39
2022-08-03T04:15:00.160Z,26.32
2022-08-03T04:17:28.405Z,26.2
2022-08-03T04:20:33.685Z,26.27
2022-08-03T04:23:01.927Z,26.24
2022-08-03T04:25:30.189Z,26.19
2022-08-03T04:28:07.844Z,26.25
2022-08-03T04:30:26.673Z,26.13
2022-08-03T04:33:32.413Z,26.09
2022-08-03T04:36:02.484Z,26.09
2022-08-03T04:38:28.513Z,25.98
2022-08-03T04:41:33.768Z,26.04
2022-08-03T04:44:02.065Z,26.09
2022-08-03T04:46:30.300Z,26.01
2022-08-03T04:48:50.339Z,26.07
2022-08-03T04:51:18.594Z,25.88
2022-08-03T04:55:00.950Z,25.73
2022-08-03T04:57:29.197Z,25.67
2022-08-03T05:00:34.523Z,25.67
2022-08-03T05:03:02.784Z,25.69
2022-08-03T05:05:34.946Z,25.7
2022-08-03T05:07:59.276Z,25.77
2022-08-03T05:10:27.546Z,25.91
2022-08-03T05:13:32.844Z,25.82
2022-08-03T05:16:01.022Z,25.82
2022-08-03T05:18:29.308Z,25.82
2022-08-03T05:20:57.580Z,25.82
2022-08-03T05:23:25.808Z,25.88
2022-08-03T05:26:31.100Z,25.91
2022-08-03T05:28:59.379Z,25.91
2022-08-03T05:31:27.635Z,25.87
2022-08-03T05:34:32.930Z,25.83
2022-08-03T05:37:01.168Z,25.83
2022-08-03T05:39:29.402Z,25.88
2022-08-03T05:42:34.723Z,25.88
2022-08-03T05:45:02.988Z,25.9
2022-08-03T05:47:31.264Z,25.91
2022-08-03T05:49:51.281Z,25.91
2022-08-03T05:52:19.536Z,26.04
2022-08-03T05:55:24.854Z,26.26
2022-08-03T05:58:30.151Z,26.32
2022-08-03T06:00:58.426Z,26.29
2022-08-03T06:03:26.674Z,26.32
2022-08-03T06:06:32.363Z,26.36
2022-08-03T06:10:33.353Z,26.45
2022-08-03T06:12:05.548Z,26.47
2022-08-03T06:14:33.746Z,26.54
2022-08-03T06:17:02.040Z,26.53
2022-08-03T06:19:30.290Z,26.52
2022-08-03T06:21:58.511Z,26.55
2022-08-03T06:24:26.763Z,26.63
2022-08-03T06:27:36.479Z,26.73
2022-08-03T06:30:00.365Z,26.77
2022-08-03T06:32:28.582Z,26.84
2022-08-03T06:35:33.899Z,26.91
2022-08-03T06:38:02.164Z,26.95
2022-08-03T06:40:30.375Z,27.04
2022-08-03T06:42:58.658Z,27.06
2022-08-03T06:45:26.867Z,27.24
2022-08-03T06:48:24.021Z,27.4
2022-08-03T06:52:02.977Z,27.46
2022-08-03T06:53:57.573Z,27.49
2022-08-03T06:56:25.794Z,27.57
2022-08-03T07:00:06.775Z,27.69
2022-08-03T07:01:59.351Z,27.73
2022-08-03T07:04:27.660Z,27.89
2022-08-03T07:07:32.909Z,27.98
2022-08-03T07:10:02.184Z,28
2022-08-03T07:12:29.418Z,28.12
2022-08-03T07:15:00.593Z,28.14
2022-08-03T07:17:25.926Z,28.24
2022-08-03T07:20:32.653Z,28.34
2022-08-03T07:22:59.472Z,28.36
2022-08-03T07:25:27.721Z,28.44
2022-08-03T07:28:33.046Z,28.5
2022-08-03T07:31:01.249Z,28.49
2022-08-03T07:33:29.535Z,28.46
2022-08-03T07:36:34.841Z,28.42
2022-08-03T07:39:14.735Z,28.43
2022-08-03T07:41:31.347Z,28.49
2022-08-03T07:43:59.606Z,28.52
2022-08-03T07:46:27.826Z,28.57
2022-08-03T07:49:24.945Z,28.67
2022-08-03T07:52:30.267Z,28.74
2022-08-03T07:54:58.482Z,28.76
2022-08-03T07:57:26.783Z,28.81
2022-08-03T08:00:32.068Z,28.84
2022-08-03T08:03:00.321Z,28.86
2022-08-03T08:05:28.570Z,28.89
2022-08-03T08:09:10.939Z,28.93
2022-08-03T08:12:16.575Z,28.9
2022-08-03T08:15:21.584Z,29.01
2022-08-03T08:18:26.856Z,29.09
2022-08-03T08:21:52.885Z,29.14
2022-08-03T08:24:00.438Z,29.16
2022-08-03T08:26:28.658Z,29.22
2022-08-03T08:29:33.998Z,29.25
2022-08-03T08:32:02.243Z,29.27
2022-08-03T08:34:30.454Z,29.33
2022-08-03T08:36:58.743Z,29.34
2022-08-03T08:39:27.026Z,29.38
2022-08-03T08:42:32.269Z,29.43
2022-08-03T08:45:00.528Z,29.44
2022-08-03T08:47:28.785Z,29.5
2022-08-03T08:50:27.538Z,29.46
2022-08-03T08:53:31.189Z,29.53
2022-08-03T08:56:00.417Z,29.55
2022-08-03T08:58:27.731Z,29.61
2022-08-03T09:01:33.065Z,29.64
2022-08-03T09:04:01.234Z,29.64
2022-08-03T09:06:29.497Z,29.7
2022-08-03T09:08:57.785Z,29.72
2022-08-03T09:11:51.850Z,29.76
2022-08-03T09:14:34.360Z,29.81
2022-08-03T09:16:59.564Z,29.83
2022-08-03T09:19:27.830Z,29.89
2022-08-03T09:22:33.132Z,29.96
2022-08-03T09:25:23.129Z,29.97
2022-08-03T09:27:29.617Z,30.03
2022-08-03T09:30:35.276Z,30.09
2022-08-03T09:33:03.149Z,30.12
2022-08-03T09:35:51.997Z,30.18
2022-08-03T09:38:06.019Z,30.19
2022-08-03T09:40:27.910Z,30.25
2022-08-03T09:43:33.245Z,30.3
2022-08-03T09:46:01.477Z,30.28
2022-08-03T09:48:29.726Z,30.33
2022-08-03T09:52:31.417Z,30.36
2022-08-03T09:54:32.158Z,30.45
2022-08-03T09:57:00.378Z,30.45
2022-08-03T09:59:28.705Z,30.42
2022-08-03T10:02:33.949Z,30.47
2022-08-03T10:05:02.220Z,30.51
2022-08-03T10:07:30.440Z,30.65
2022-08-03T10:10:29.289Z,30.68
2022-08-03T10:12:26.958Z,30.73
2022-08-03T10:16:20.865Z,30.8
2022-08-03T10:18:00.496Z,30.8
2022-08-03T10:20:28.806Z,30.81
2022-08-03T10:23:34.173Z,30.9
2022-08-03T10:26:02.346Z,30.92
2022-08-03T10:28:30.590Z,30.97
2022-08-03T10:30:58.830Z,30.98
2022-08-03T10:33:50.416Z,30.95
2022-08-03T10:36:32.640Z,31.14
2022-08-03T10:39:00.643Z,31.15
2022-08-03T10:41:28.918Z,31.23
2022-08-03T10:43:57.145Z,31.26
2022-08-03T10:46:25.345Z,31.33
2022-08-03T10:49:34.123Z,31.43
2022-08-03T10:51:58.956Z,31.45
2022-08-03T10:54:27.190Z,31.38
2022-08-03T10:57:32.466Z,31.6
2022-08-03T11:00:37.884Z,31.67
2022-08-03T11:02:57.857Z,31.71
2022-08-03T11:05:26.112Z,31.78
2022-08-03T11:08:31.431Z,31.87
2022-08-03T11:10:59.702Z,31.89
2022-08-03T11:13:27.884Z,31.98
2022-08-03T11:16:33.236Z,32.02
2022-08-03T11:19:01.434Z,32.05
2022-08-03T11:21:30.477Z,32.09
2022-08-03T11:24:03.766Z,32.12
2022-08-03T11:26:26.185Z,32.24
2022-08-03T11:29:31.519Z,32.3
2022-08-03T11:31:59.796Z,32.33
2022-08-03T11:34:28.008Z,32.43
2022-08-03T11:37:33.488Z,32.55
2022-08-03T11:40:02.620Z,32.59
2022-08-03T11:42:29.803Z,32.75
2022-08-03T11:44:58.077Z,32.83
2022-08-03T11:47:26.304Z,33.05
2022-08-03T11:51:08.697Z,33.16
2022-08-03T11:54:14.029Z,33.39
2022-08-03T11:57:19.489Z,33.53
2022-08-03T12:00:25.810Z,33.77
2022-08-03T12:03:30.013Z,33.9
2022-08-03T12:05:58.215Z,33.97
2022-08-03T12:08:26.459Z,34.16
2022-08-03T12:10:54.686Z,34.28
2022-08-03T12:13:57.050Z,34.3
2022-08-03T12:16:20.059Z,34.4
2022-08-03T12:19:25.440Z,34.57
2022-08-03T12:22:30.674Z,34.84
2022-08-03T12:24:58.923Z,34.93
2022-08-03T12:27:27.165Z,35.06
2022-08-03T12:30:32.490Z,35.2
2022-08-03T12:33:00.725Z,35.23
2022-08-03T12:35:28.967Z,35.38
2022-08-03T12:38:36.358Z,35.62
2022-08-03T12:41:02.551Z,35.66
2022-08-03T12:43:37.609Z,35.82
2022-08-03T12:45:59.017Z,35.82
2022-08-03T12:48:27.729Z,35.84
2022-08-03T12:51:32.573Z,36.09
2022-08-03T12:54:00.821Z,36.18
2022-08-03T12:56:29.087Z,36.41
2022-08-03T12:59:35.113Z,36.43
2022-08-03T13:02:02.846Z,36.43
2022-08-03T13:04:33.183Z,36.59
2022-08-03T13:07:02.802Z,36.66
2022-08-03T13:09:27.403Z,36.72
2022-08-03T13:12:32.705Z,36.93
2022-08-03T13:14:52.774Z,36.96
2022-08-03T13:17:21.294Z,37.08
2022-08-03T13:20:26.648Z,37.25
2022-08-03T13:23:31.642Z,37.29
2022-08-03T13:25:59.864Z,37.31
2022-08-03T13:28:28.138Z,37.33
2022-08-03T13:31:33.463Z,37.25
2022-08-03T13:34:01.692Z,37.24
2022-08-03T13:36:29.996Z,37.5
2022-08-03T13:38:58.189Z,37.54
2022-08-03T13:41:27.023Z,37.82
2022-08-03T13:44:31.751Z,37.89
2022-08-03T13:46:59.993Z,37.91
2022-08-03T13:49:28.217Z,38.04
2022-08-03T13:52:33.565Z,38.07
2022-08-03T13:55:01.772Z,38.07
2022-08-03T13:58:02.079Z,38.05
2022-08-03T13:59:58.258Z,38.08
2022-08-03T14:02:26.611Z,38.12
2022-08-03T14:05:32.164Z,38.07
2022-08-03T14:08:03.077Z,38.12
2022-08-03T14:10:28.362Z,38.27
2022-08-03T14:13:25.459Z,38.43
2022-08-03T14:16:30.743Z,38.54
2022-08-03T14:18:59.047Z,38.58
2022-08-03T14:21:27.254Z,38.54
2022-08-03T14:24:32.559Z,38.75
2022-08-03T14:27:07.306Z,38.81
2022-08-03T14:29:29.105Z,39.48
2022-08-03T14:32:10.515Z,39.63
2022-08-03T14:35:30.760Z,40.04
2022-08-03T14:37:30.861Z,40.05
2022-08-03T14:40:00.195Z,40.07
2022-08-03T14:42:27.357Z,39.55
2022-08-03T14:45:32.676Z,39.56
2022-08-03T14:50:29.883Z,39.59
2022-08-03T14:52:20.376Z,39.48
2022-08-03T14:55:25.696Z,39.5
2022-08-03T14:58:30.976Z,39.48
2022-08-03T15:00:59.270Z,39.47
2022-08-03T15:03:27.479Z,39.5
2022-08-03T15:06:32.797Z,39.62
2022-08-03T15:09:20.975Z,39.68
2022-08-03T15:11:29.297Z,39.82
2022-08-03T15:15:03.474Z,40.05
2022-08-03T15:17:31.730Z,40.02
2022-08-03T15:20:24.435Z,39.95
2022-08-03T15:22:34.892Z,40.04
2022-08-03T15:26:01.837Z,40.14
2022-08-03T15:28:02.656Z,40.16
2022-08-03T15:30:30.046Z,40.34
2022-08-03T15:32:58.298Z,40.33
2022-08-03T15:35:26.535Z,40.3
2022-08-03T15:38:31.855Z,40.23
2022-08-03T15:41:00.111Z,40.25
2022-08-03T15:43:28.345Z,40.34
2022-08-03T15:46:33.641Z,40.41
2022-08-03T15:49:01.890Z,40.39
2022-08-03T15:51:30.159Z,40.48
2022-08-03T15:53:58.355Z,25.74
2022-08-03T15:57:03.705Z,40.47
2022-08-03T15:59:31.981Z,40.47
2022-08-03T16:02:00.281Z,40.47
2022-08-03T16:04:28.466Z,40.39
2022-08-03T16:07:33.751Z,40.38
2022-08-03T16:10:01.990Z,40.4
2022-08-03T16:12:30.244Z,40.34
2022-08-03T16:14:58.491Z,40.34
2022-08-03T16:17:26.724Z,40.41
2022-08-03T16:20:34.108Z,40.4
2022-08-03T16:23:37.379Z,40.34
2022-08-03T16:25:57.408Z,40.36
2022-08-03T16:28:25.653Z,40.68
2022-08-03T16:32:09.468Z,40.66
2022-08-03T16:35:19.341Z,40.77
2022-08-03T16:38:19.247Z,40.75
2022-08-03T16:41:23.974Z,40.8
2022-08-03T16:44:29.298Z,40.97
2022-08-03T16:47:34.589Z,41
2022-08-03T16:50:05.827Z,40.98
2022-08-03T16:52:31.061Z,40.77
2022-08-03T16:54:59.340Z,40.72
2022-08-03T16:57:29.796Z,40.43
2022-08-03T17:03:01.438Z,40.37
2022-08-03T17:05:32.573Z,40.36
2022-08-03T17:08:34.696Z,40.3
2022-08-03T17:11:02.938Z,40.25
2022-08-03T17:13:39.626Z,40.15
2022-08-03T17:16:01.165Z,40.54
2022-08-03T17:18:27.726Z,40.02
2022-08-03T17:22:10.084Z,39.91
2022-08-03T17:25:21.785Z,39.88
2022-08-03T17:28:43.030Z,40
2022-08-03T17:31:30.990Z,40.14
2022-08-03T17:34:31.288Z,40.04
2022-08-03T17:37:04.382Z,39.98
2022-08-03T17:39:48.778Z,39.8
2022-08-03T17:43:44.096Z,39.41
2022-08-03T17:46:12.134Z,39.37
2022-08-03T17:49:24.505Z,39.15
2022-08-03T17:52:22.152Z,38.91
2022-08-03T17:55:51.287Z,37.73
2022-08-03T17:58:32.640Z,38.57
2022-08-03T18:01:00.849Z,38.53
2022-08-03T18:03:29.274Z,38.33
2022-08-03T18:06:34.457Z,38.16
2022-08-03T18:09:05.004Z,38.12
2022-08-03T18:11:34.747Z,37.96
2022-08-03T18:13:59.176Z,37.93
2022-08-03T18:16:27.424Z,37.5
2022-08-03T18:20:01.456Z,37.71
2022-08-03T18:22:02.476Z,37.65
2022-08-03T18:24:29.226Z,37.52
2022-08-03T18:27:41.722Z,37.41
2022-08-03T18:30:02.783Z,37.37
2022-08-03T18:32:31.072Z,37.25
2022-08-03T18:36:17.814Z,37.18
2022-08-03T18:39:19.511Z,37.11
2022-08-03T18:42:26.096Z,37.02
2022-08-03T18:45:55.571Z,36.96
2022-08-03T18:47:57.600Z,36.91
2022-08-03T18:50:25.819Z,36.82
2022-08-03T18:54:01.933Z,36.77
2022-08-03T18:56:28.267Z,36.68
2022-08-03T18:59:33.567Z,36.59
2022-08-03T19:02:04.050Z,36.56
2022-08-03T19:04:30.102Z,36.41
2022-08-03T19:06:58.330Z,36.37
2022-08-03T19:10:04.525Z,36.27
2022-08-03T19:13:11.418Z,36.16
2022-08-03T19:16:14.224Z,36.04
2022-08-03T19:19:19.604Z,35.95
2022-08-03T19:22:25.160Z,35.86
2022-08-03T19:25:33.365Z,35.78
2022-08-03T19:27:58.435Z,35.73
2022-08-03T19:30:26.663Z,35.64
2022-08-03T19:33:32.036Z,35.5
2022-08-03T19:36:00.250Z,35.48
2022-08-03T19:38:29.734Z,35.37
2022-08-03T19:41:41.828Z,35.3
2022-08-03T19:45:17.016Z,35.18
2022-08-03T19:48:22.178Z,35.09
2022-08-03T19:52:03.880Z,34.93
2022-08-03T19:54:32.339Z,34.84
2022-08-03T19:56:52.193Z,34.8
2022-08-03T19:59:20.433Z,34.78
2022-08-03T20:01:50.520Z,34.66
2022-08-03T20:05:45.214Z,34.53
2022-08-03T20:12:55.802Z,34.28
2022-08-03T20:15:31.412Z,34.22
2022-08-03T20:19:14.023Z,34.21
2022-08-03T20:21:34.645Z,34.16
2022-08-03T20:25:57.646Z,34.07
2022-08-03T20:31:32.150Z,34.04
2022-08-03T20:33:55.859Z,33.97
2022-08-03T20:37:01.186Z,33.88
2022-08-03T20:40:43.599Z,33.74
2022-08-03T20:47:00.405Z,33.62
2022-08-03T20:49:22.998Z,33.61
2022-08-03T20:51:52.452Z,33.57
2022-08-03T20:56:49.271Z,33.47
2022-08-03T20:59:15.429Z,33.56
2022-08-03T21:02:29.243Z,33.4
2022-08-03T21:05:30.887Z,33.25
2022-08-03T21:17:47.635Z,33.15
2022-08-03T21:23:34.968Z,33.05
2022-08-03T21:26:26.169Z,32.88
2022-08-03T21:29:31.461Z,32.91
2022-08-03T21:31:59.730Z,32.89
2022-08-03T21:34:27.982Z,32.84
2022-08-03T21:39:24.511Z,32.73
2022-08-03T21:42:21.621Z,32.79
2022-08-03T21:45:26.881Z,32.68
2022-08-03T21:48:32.223Z,32.68
2022-08-03T21:51:00.415Z,32.64
2022-08-03T21:54:00.255Z,32.62
2022-08-03T21:56:34.013Z,32.59
2022-08-03T21:59:02.264Z,32.62
2022-08-03T22:01:31.363Z,32.5
2022-08-03T22:03:58.743Z,32.45
2022-08-03T22:06:27.198Z,32.45
2022-08-03T22:10:46.452Z,32.47
2022-08-03T22:13:51.768Z,32.37
2022-08-03T22:18:48.230Z,32.18
2022-08-03T22:23:44.769Z,32.12
2022-08-03T22:27:31.193Z,32.08
2022-08-03T22:29:59.447Z,32.02
2022-08-03T22:32:27.670Z,31.93
2022-08-03T22:37:24.223Z,32
2022-08-03T22:39:52.463Z,31.92
2022-08-03T22:42:57.743Z,31.78
2022-08-03T22:50:31.145Z,31.7
2022-08-03T22:52:50.716Z,31.7
2022-08-03T22:57:50.931Z,31.67
2022-08-03T23:01:29.591Z,31.69
2022-08-03T23:04:34.919Z,31.61
2022-08-03T23:07:03.156Z,31.59
2022-08-03T23:09:31.421Z,31.56
2022-08-03T23:11:59.677Z,31.54
2022-08-03T23:14:27.898Z,31.53
2022-08-03T23:18:10.291Z,31.47
2022-08-03T23:22:29.805Z,31.45
2022-08-03T23:25:26.851Z,31.47
2022-08-03T23:28:32.202Z,31.46
2022-08-03T23:31:00.369Z,31.44
2022-08-03T23:33:28.660Z,31.47
2022-08-03T23:36:33.949Z,31.45
2022-08-03T23:39:02.433Z,31.41
2022-08-03T23:41:30.445Z,31.28
2022-08-03T23:43:58.707Z,31.28
2022-08-03T23:46:26.940Z,31.26
2022-08-03T23:53:51.688Z,31.12
